createdAt,value
2018-05-24T00:02:05.779Z,3.10
2018-05-24T00:04:33.259Z,3.00
2018-05-24T00:07:00.723Z,3.10
2018-05-24T00:09:28.283Z,3.33
2018-05-24T00:11:55.841Z,2.80
2018-05-24T00:14:24.122Z,3.00
2018-05-24T00:16:52.367Z,3.20
2018-05-24T00:19:19.853Z,2.80
2018-05-24T00:21:47.525Z,3.27
2018-05-24T00:24:15.063Z,2.90
2018-05-24T00:26:42.565Z,3.17
2018-05-24T00:29:10.810Z,3.10
2018-05-24T00:31:38.379Z,2.90
2018-05-24T00:34:05.892Z,2.77
2018-05-24T00:36:33.403Z,2.90
2018-05-24T00:39:01.674Z,3.00
2018-05-24T00:41:29.173Z,3.30
2018-05-24T00:43:56.676Z,3.40
2018-05-24T00:46:24.939Z,2.93
2018-05-24T00:48:52.419Z,2.87
2018-05-24T00:51:19.909Z,3.40
2018-05-24T00:53:48.164Z,3.23
2018-05-24T00:56:15.648Z,2.90
2018-05-24T00:58:43.879Z,2.93
2018-05-24T01:01:11.464Z,2.90
2018-05-24T01:03:38.946Z,2.90
2018-05-24T01:06:07.298Z,3.00
2018-05-24T01:08:34.776Z,3.00
2018-05-24T01:11:03.047Z,3.47
2018-05-24T01:13:31.281Z,3.43
2018-05-24T01:15:58.778Z,3.40
2018-05-24T01:18:26.265Z,2.90
2018-05-24T01:20:53.769Z,3.27
2018-05-24T01:23:21.236Z,2.93
2018-05-24T01:25:48.735Z,2.80
2018-05-24T01:28:16.990Z,3.17
2018-05-24T01:30:44.471Z,3.07
2018-05-24T01:33:12.718Z,3.00
2018-05-24T01:35:40.960Z,2.97
2018-05-24T01:38:08.430Z,3.20
2018-05-24T01:40:35.938Z,3.00
2018-05-24T01:43:04.597Z,3.07
2018-05-24T01:45:32.904Z,3.00
2018-05-24T01:48:01.159Z,4.23
2018-05-24T01:50:28.657Z,3.10
2018-05-24T01:52:57.020Z,3.20
2018-05-24T01:55:25.270Z,3.13
2018-05-24T01:57:54.259Z,3.03
2018-05-24T02:00:21.752Z,3.20
2018-05-24T02:02:50.007Z,3.23
2018-05-24T02:05:18.251Z,3.57
2018-05-24T02:07:45.738Z,3.27
2018-05-24T02:10:13.225Z,3.07
2018-05-24T02:12:41.486Z,3.20
2018-05-24T02:15:09.043Z,3.30
2018-05-24T02:17:36.519Z,3.33
2018-05-24T02:20:04.747Z,3.40
2018-05-24T02:22:32.269Z,3.00
2018-05-24T02:24:59.756Z,3.33
2018-05-24T02:27:27.264Z,3.30
2018-05-24T02:29:54.832Z,3.30
2018-05-24T02:32:23.093Z,3.50
2018-05-24T02:34:50.563Z,3.20
2018-05-24T02:37:18.049Z,3.30
2018-05-24T02:39:45.617Z,3.30
2018-05-24T02:42:13.135Z,3.10
2018-05-24T02:44:40.616Z,3.30
2018-05-24T02:47:08.948Z,3.50
2018-05-24T02:49:36.445Z,3.20
2018-05-24T02:52:04.720Z,3.30
2018-05-24T02:54:32.972Z,3.13
2018-05-24T02:57:00.499Z,3.20
2018-05-24T02:59:27.990Z,3.10
2018-05-24T03:01:55.469Z,3.27
2018-05-24T03:04:22.927Z,3.43
2018-05-24T03:06:50.409Z,3.27
2018-05-24T03:09:18.672Z,3.00
2018-05-24T03:11:46.236Z,3.20
2018-05-24T03:14:14.589Z,3.03
2018-05-24T03:16:41.968Z,2.90
2018-05-24T03:19:10.246Z,3.40
2018-05-24T03:21:38.493Z,3.30
2018-05-24T03:24:05.978Z,3.80
2018-05-24T03:26:33.456Z,3.17
2018-05-24T03:29:01.703Z,3.03
2018-05-24T03:31:29.180Z,3.60
2018-05-24T03:33:56.756Z,3.30
2018-05-24T03:36:25.046Z,3.63
2018-05-24T03:38:52.542Z,3.23
2018-05-24T03:41:20.049Z,3.20
2018-05-24T03:43:48.297Z,3.13
2018-05-24T03:46:15.884Z,3.50
2018-05-24T03:48:44.140Z,3.40
2018-05-24T03:51:12.398Z,3.47
2018-05-24T03:53:39.892Z,3.40
2018-05-24T03:56:08.150Z,3.57
2018-05-24T03:58:37.136Z,3.50
2018-05-24T04:01:16.496Z,3.80
2018-05-24T04:03:49.780Z,3.47
2018-05-24T04:06:18.034Z,3.50
2018-05-24T04:08:45.530Z,3.20
2018-05-24T04:11:13.789Z,3.30
2018-05-24T04:13:41.363Z,3.17
2018-05-24T04:16:08.938Z,3.20
2018-05-24T04:18:37.201Z,3.40
2018-05-24T04:21:04.696Z,3.50
2018-05-24T04:23:32.233Z,3.77
2018-05-24T04:26:00.489Z,3.60
2018-05-24T04:28:28.755Z,3.50
2018-05-24T04:30:56.361Z,3.37
2018-05-24T04:33:24.597Z,3.23
2018-05-24T04:35:52.201Z,3.60
2018-05-24T04:38:19.729Z,3.90
2018-05-24T04:40:47.268Z,3.73
2018-05-24T04:43:15.514Z,3.30
2018-05-24T04:45:43.059Z,3.40
2018-05-24T04:48:11.302Z,3.53
2018-05-24T04:50:38.886Z,3.47
2018-05-24T04:53:07.177Z,3.53
2018-05-24T04:55:34.680Z,3.20
2018-05-24T04:58:02.171Z,3.63
2018-05-24T05:00:30.445Z,3.87
2018-05-24T05:02:57.937Z,3.27
2018-05-24T05:05:25.455Z,3.47
2018-05-24T05:07:52.932Z,3.20
2018-05-24T05:10:20.440Z,3.90
2018-05-24T05:12:48.063Z,3.80
2018-05-24T05:15:15.515Z,3.50
2018-05-24T05:17:43.811Z,3.53
2018-05-24T05:20:12.129Z,3.63
2018-05-24T05:22:39.620Z,3.63
2018-05-24T05:25:07.123Z,3.03
2018-05-24T05:27:34.602Z,3.27
2018-05-24T05:30:02.150Z,3.10
2018-05-24T05:32:29.672Z,3.27
2018-05-24T05:34:57.995Z,3.70
2018-05-24T05:37:25.472Z,3.13
2018-05-24T05:39:52.974Z,3.77
2018-05-24T05:42:21.403Z,3.50
2018-05-24T05:44:48.913Z,3.80
2018-05-24T05:47:17.184Z,3.77
2018-05-24T05:49:45.476Z,3.87
2018-05-24T05:52:13.753Z,3.63
2018-05-24T05:54:42.049Z,3.97
2018-05-24T05:57:09.564Z,3.90
2018-05-24T05:59:37.077Z,3.87
2018-05-24T06:02:04.572Z,3.77
2018-05-24T06:04:32.064Z,3.33
2018-05-24T06:07:00.313Z,3.80
2018-05-24T06:09:27.816Z,3.80
2018-05-24T06:11:56.182Z,3.70
2018-05-24T06:14:24.423Z,4.00
2018-05-24T06:16:52.014Z,3.83
2018-05-24T06:19:20.243Z,4.00
2018-05-24T06:21:47.905Z,3.70
2018-05-24T06:24:15.384Z,3.83
2018-05-24T06:26:42.867Z,3.80
2018-05-24T06:29:10.341Z,3.63
2018-05-24T06:31:38.609Z,4.30
2018-05-24T06:34:06.120Z,4.33
2018-05-24T06:36:33.619Z,3.33
2018-05-24T06:39:01.105Z,4.03
2018-05-24T06:41:29.343Z,3.90
2018-05-24T06:43:56.940Z,4.30
2018-05-24T06:46:25.182Z,4.30
2018-05-24T06:48:52.670Z,3.70
2018-05-24T06:51:20.940Z,4.30
2018-05-24T06:53:48.443Z,3.80
2018-05-24T06:56:15.915Z,4.17
2018-05-24T06:58:43.433Z,3.70
2018-05-24T07:01:11.724Z,3.90
2018-05-24T07:03:39.238Z,3.80
2018-05-24T07:06:06.708Z,3.87
2018-05-24T07:08:34.199Z,4.17
2018-05-24T07:11:02.586Z,4.10
2018-05-24T07:13:30.083Z,4.27
2018-05-24T07:15:57.566Z,3.63
2018-05-24T07:18:25.170Z,3.80
2018-05-24T07:20:52.643Z,4.50
2018-05-24T07:23:20.149Z,3.83
2018-05-24T07:25:47.622Z,3.20
2018-05-24T07:28:15.876Z,4.10
2018-05-24T07:30:43.350Z,3.93
2018-05-24T07:33:10.914Z,3.40
2018-05-24T07:35:39.165Z,3.70
2018-05-24T07:38:06.668Z,3.77
2018-05-24T07:40:34.925Z,3.87
2018-05-24T07:43:02.533Z,3.93
2018-05-24T07:45:30.083Z,3.90
2018-05-24T07:47:57.597Z,3.30
2018-05-24T07:50:25.851Z,3.50
2018-05-24T07:52:53.389Z,3.80
2018-05-24T07:55:20.863Z,3.60
2018-05-24T07:57:48.396Z,3.77
2018-05-24T08:00:15.920Z,3.23
2018-05-24T08:02:43.484Z,3.30
2018-05-24T08:05:10.953Z,3.37
2018-05-24T08:07:39.209Z,3.40
2018-05-24T08:10:06.697Z,3.30
2018-05-24T08:12:34.951Z,3.30
2018-05-24T08:15:02.446Z,3.77
2018-05-24T08:17:29.977Z,3.40
2018-05-24T08:19:57.482Z,3.43
2018-05-24T08:22:24.994Z,4.00
2018-05-24T08:24:52.510Z,2.93
2018-05-24T08:27:20.038Z,3.67
2018-05-24T08:29:48.291Z,3.30
2018-05-24T08:32:16.547Z,3.57
2018-05-24T08:34:44.152Z,3.27
2018-05-24T08:37:12.415Z,3.60
2018-05-24T08:39:40.676Z,3.10
2018-05-24T08:42:08.154Z,3.30
2018-05-24T08:44:36.432Z,3.50
2018-05-24T08:47:04.711Z,3.30
2018-05-24T08:49:32.961Z,3.03
2018-05-24T08:52:00.591Z,3.30
2018-05-24T08:54:28.078Z,2.97
2018-05-24T08:56:55.558Z,3.13
2018-05-24T08:59:23.038Z,3.00
2018-05-24T09:01:51.288Z,3.17
2018-05-24T09:04:18.863Z,3.10
2018-05-24T09:06:47.167Z,3.50
2018-05-24T09:09:14.705Z,2.83
2018-05-24T09:11:43.498Z,3.13
2018-05-24T09:14:11.777Z,3.10
2018-05-24T09:16:40.109Z,2.77
2018-05-24T09:19:08.354Z,2.90
2018-05-24T09:21:35.829Z,3.07
2018-05-24T09:24:03.350Z,2.80
2018-05-24T09:26:31.605Z,3.70
2018-05-24T09:28:59.183Z,3.10
2018-05-24T09:31:26.654Z,3.07
2018-05-24T09:33:54.889Z,2.83
2018-05-24T09:36:22.564Z,2.60
2018-05-24T09:38:49.897Z,2.77
2018-05-24T09:41:17.407Z,2.67
2018-05-24T09:43:45.656Z,2.30
2018-05-24T09:46:13.138Z,2.73
2018-05-24T09:48:41.384Z,2.77
2018-05-24T09:51:08.864Z,2.73
2018-05-24T09:53:36.351Z,2.50
2018-05-24T09:56:04.599Z,2.60
2018-05-24T09:58:32.088Z,2.60
2018-05-24T10:01:00.339Z,2.63
2018-05-24T10:03:28.646Z,2.60
2018-05-24T10:05:56.145Z,2.63
2018-05-24T10:08:23.617Z,2.53
2018-05-24T10:10:51.107Z,2.83
2018-05-24T10:13:19.379Z,2.30
2018-05-24T10:15:47.660Z,2.70
2018-05-24T10:18:15.930Z,2.90
2018-05-24T10:20:43.487Z,2.40
2018-05-24T10:23:11.785Z,2.60
2018-05-24T10:25:40.052Z,2.90
2018-05-24T10:28:08.309Z,2.60
2018-05-24T10:30:35.794Z,2.90
2018-05-24T10:33:04.074Z,2.53
2018-05-24T10:35:32.336Z,3.27
2018-05-24T10:37:59.900Z,2.37
2018-05-24T10:40:28.168Z,2.20
2018-05-24T10:42:55.662Z,2.40
2018-05-24T10:45:23.151Z,2.70
2018-05-24T10:47:50.659Z,2.60
2018-05-24T10:50:18.906Z,2.37
2018-05-24T10:52:46.412Z,2.50
2018-05-24T10:55:14.667Z,2.70
2018-05-24T10:57:42.243Z,2.30
2018-05-24T11:00:10.539Z,2.70
2018-05-24T11:02:38.823Z,2.70
2018-05-24T11:05:06.307Z,2.50
2018-05-24T11:07:33.799Z,2.67
2018-05-24T11:10:02.038Z,2.80
2018-05-24T11:12:29.528Z,2.60
2018-05-24T11:14:57.038Z,2.90
2018-05-24T11:17:24.886Z,2.70
2018-05-24T11:19:52.372Z,2.70
2018-05-24T11:22:19.850Z,2.40
2018-05-24T11:24:47.351Z,2.60
2018-05-24T11:27:15.605Z,2.63
2018-05-24T11:29:43.075Z,2.97
2018-05-24T11:32:10.705Z,2.70
2018-05-24T11:34:38.902Z,2.60
2018-05-24T11:37:06.588Z,2.63
2018-05-24T11:39:34.771Z,2.47
2018-05-24T11:42:03.024Z,2.40
2018-05-24T11:44:30.603Z,3.00
2018-05-24T11:46:58.878Z,2.67
2018-05-24T11:49:27.855Z,2.90
2018-05-24T11:51:55.394Z,2.80
2018-05-24T11:54:22.918Z,3.30
2018-05-24T11:56:50.381Z,2.30
2018-05-24T11:59:17.862Z,2.77
2018-05-24T12:01:45.364Z,2.50
2018-05-24T12:04:12.923Z,2.53
2018-05-24T12:06:40.382Z,2.40
2018-05-24T12:09:08.653Z,2.77
2018-05-24T12:11:37.631Z,2.37
2018-05-24T12:14:05.103Z,2.57
2018-05-24T12:16:32.584Z,2.37
2018-05-24T12:19:00.849Z,2.30
2018-05-24T12:21:28.337Z,2.27
2018-05-24T12:23:56.702Z,2.60
2018-05-24T12:26:24.975Z,2.70
2018-05-24T12:28:53.248Z,2.57
2018-05-24T12:31:20.705Z,2.33
2018-05-24T12:33:48.185Z,2.57
2018-05-24T12:36:16.415Z,2.30
2018-05-24T12:38:43.904Z,2.40
2018-05-24T12:41:12.175Z,2.77
2018-05-24T12:43:39.662Z,2.97
2018-05-24T12:46:07.926Z,2.43
2018-05-24T12:48:36.231Z,2.23
2018-05-24T12:51:03.720Z,2.50
2018-05-24T12:53:31.218Z,2.33
2018-05-24T12:55:58.698Z,2.47
2018-05-24T12:58:26.952Z,2.10
2018-05-24T13:00:55.214Z,2.30
2018-05-24T13:03:22.695Z,2.33
2018-05-24T13:05:50.974Z,2.37
2018-05-24T13:08:19.218Z,2.50
2018-05-24T13:10:46.684Z,2.37
2018-05-24T13:13:14.260Z,2.60
2018-05-24T13:15:41.734Z,2.40
2018-05-24T13:18:09.995Z,2.87
2018-05-24T13:20:37.485Z,2.40
2018-05-24T13:23:05.122Z,2.40
2018-05-24T13:25:32.614Z,2.77
2018-05-24T13:28:00.090Z,2.70
2018-05-24T13:30:27.588Z,2.27
2018-05-24T13:32:55.169Z,2.30
2018-05-24T13:35:23.426Z,2.33
2018-05-24T13:40:25.020Z,2.50
2018-05-24T13:42:53.186Z,2.10
2018-05-24T13:45:20.748Z,2.40
2018-05-24T13:47:48.927Z,2.47
2018-05-24T13:50:16.405Z,2.37
2018-05-24T13:52:44.713Z,2.43
2018-05-24T13:55:12.169Z,2.67
2018-05-24T13:57:45.054Z,2.40
2018-05-24T14:00:12.539Z,2.53
2018-05-24T14:02:40.023Z,2.40
2018-05-24T14:05:07.617Z,2.47
2018-05-24T14:07:35.104Z,2.43
2018-05-24T14:10:02.587Z,2.60
2018-05-24T14:12:30.066Z,2.70
2018-05-24T14:14:58.386Z,2.60
2018-05-24T14:17:25.884Z,2.30
2018-05-24T14:19:53.369Z,2.33
2018-05-24T14:22:21.631Z,2.47
2018-05-24T14:24:49.242Z,2.50
2018-05-24T14:27:16.758Z,2.10
2018-05-24T14:29:44.317Z,2.63
2018-05-24T14:32:11.805Z,2.30
2018-05-24T14:34:39.338Z,2.50
2018-05-24T14:37:06.826Z,2.70
2018-05-24T14:42:09.191Z,2.20
2018-05-24T14:44:36.658Z,2.30
2018-05-24T14:47:04.218Z,2.27
2018-05-24T14:49:32.458Z,2.37
2018-05-24T14:51:59.976Z,2.37
2018-05-24T14:54:28.234Z,2.40
2018-05-24T14:56:55.783Z,2.57
2018-05-24T14:59:23.254Z,2.60
2018-05-24T15:01:51.529Z,2.30
2018-05-24T15:04:19.091Z,2.40
2018-05-24T15:06:46.576Z,2.70
2018-05-24T15:09:14.049Z,2.20
2018-05-24T15:11:41.551Z,2.30
2018-05-24T15:14:09.136Z,2.20
2018-05-24T15:16:37.415Z,2.47
2018-05-24T15:19:05.659Z,2.47
2018-05-24T15:21:34.112Z,2.33
2018-05-24T15:24:01.591Z,2.17
2018-05-24T15:26:29.085Z,2.60
2018-05-24T15:28:57.333Z,2.70
2018-05-24T15:31:24.866Z,2.10
2018-05-24T15:33:52.354Z,2.40
2018-05-24T15:36:19.843Z,2.20
2018-05-24T15:38:48.090Z,2.63
2018-05-24T15:41:15.586Z,2.50
2018-05-24T15:43:43.917Z,2.50
2018-05-24T15:46:11.416Z,2.67
2018-05-24T15:48:38.920Z,2.40
2018-05-24T15:51:06.456Z,2.50
2018-05-24T15:53:34.713Z,2.47
2018-05-24T15:56:02.200Z,2.37
2018-05-24T15:58:29.773Z,2.30
2018-05-24T16:00:57.307Z,2.57
2018-05-24T16:03:25.586Z,2.60
2018-05-24T16:05:53.827Z,2.40
2018-05-24T16:08:21.313Z,2.67
2018-05-24T16:10:48.801Z,2.70
2018-05-24T16:13:16.301Z,2.30
2018-05-24T16:15:43.778Z,2.30
2018-05-24T16:18:11.347Z,2.53
2018-05-24T16:20:38.846Z,2.57
2018-05-24T16:23:06.804Z,2.50
2018-05-24T16:25:34.351Z,2.60
2018-05-24T16:28:02.597Z,2.90
2018-05-24T16:30:30.202Z,2.83
2018-05-24T16:32:57.753Z,2.57
2018-05-24T16:35:25.982Z,2.70
2018-05-24T16:37:53.467Z,2.60
2018-05-24T16:40:21.010Z,2.67
2018-05-24T16:42:48.591Z,2.70
2018-05-24T16:45:16.828Z,2.40
2018-05-24T16:47:44.312Z,2.90
2018-05-24T16:50:11.784Z,2.70
2018-05-24T16:52:39.275Z,2.43
2018-05-24T16:55:06.813Z,3.13
2018-05-24T16:57:34.367Z,3.03
2018-05-24T17:00:03.350Z,2.87
2018-05-24T17:02:30.925Z,3.03
2018-05-24T17:04:59.172Z,3.03
2018-05-24T17:07:26.690Z,2.70
2018-05-24T17:09:54.201Z,2.67
2018-05-24T17:12:21.689Z,3.10
2018-05-24T17:14:49.212Z,3.20
2018-05-24T17:17:16.703Z,2.80
2018-05-24T17:19:44.272Z,3.00
2018-05-24T17:22:12.520Z,2.70
2018-05-24T17:24:40.006Z,2.80
2018-05-24T17:27:08.302Z,2.80
2018-05-24T17:29:36.551Z,3.33
2018-05-24T17:32:04.027Z,3.03
2018-05-24T17:34:32.312Z,3.43
2018-05-24T17:37:00.555Z,2.43
2018-05-24T17:39:28.078Z,3.23
2018-05-24T17:41:55.551Z,2.90
2018-05-24T17:44:23.076Z,2.90
2018-05-24T17:46:50.612Z,3.30
2018-05-24T17:49:18.903Z,2.80
2018-05-24T17:51:47.162Z,3.10
2018-05-24T17:54:14.644Z,2.83
2018-05-24T17:56:42.899Z,2.97
2018-05-24T17:59:11.194Z,3.00
2018-05-24T18:01:39.441Z,7.10
2018-05-24T18:04:07.012Z,3.00
2018-05-24T18:06:34.487Z,3.20
2018-05-24T18:09:02.746Z,3.37
2018-05-24T18:11:30.225Z,3.30
2018-05-24T18:13:58.597Z,3.47
2018-05-24T18:16:26.848Z,3.60
2018-05-24T18:18:54.322Z,3.00
2018-05-24T18:21:21.957Z,2.93
2018-05-24T18:23:49.435Z,3.17
2018-05-24T18:26:16.942Z,3.33
2018-05-24T18:28:44.415Z,2.60
2018-05-24T18:31:11.905Z,3.10
2018-05-24T18:33:39.520Z,2.70
2018-05-24T18:36:07.030Z,2.80
2018-05-24T18:38:34.518Z,2.70
2018-05-24T18:41:02.789Z,2.80
2018-05-24T18:43:31.067Z,3.00
2018-05-24T18:45:59.352Z,2.83
2018-05-24T18:48:27.578Z,3.30
2018-05-24T18:50:55.076Z,3.27
2018-05-24T18:53:22.550Z,3.37
2018-05-24T18:55:50.822Z,3.00
2018-05-24T18:58:19.081Z,3.07
2018-05-24T19:00:46.650Z,3.13
2018-05-24T19:03:14.244Z,2.90
2018-05-24T19:05:41.780Z,3.33
2018-05-24T19:08:10.034Z,3.00
2018-05-24T19:10:37.508Z,2.80
2018-05-24T19:13:05.836Z,2.90
2018-05-24T19:15:33.358Z,3.20
2018-05-24T19:18:01.623Z,2.90
2018-05-24T19:20:29.129Z,3.17
2018-05-24T19:22:57.464Z,2.97
2018-05-24T19:25:25.899Z,2.63
2018-05-24T19:27:53.395Z,2.70
2018-05-24T19:30:22.504Z,2.87
2018-05-24T19:32:50.071Z,3.13
2018-05-24T19:35:19.325Z,3.00
2018-05-24T19:37:46.825Z,3.33
2018-05-24T19:40:14.320Z,2.87
2018-05-24T19:42:41.923Z,3.20
2018-05-24T19:45:09.578Z,3.27
2018-05-24T19:47:37.139Z,2.97
2018-05-24T19:50:04.631Z,3.20
2018-05-24T19:52:32.231Z,3.60
2018-05-24T19:55:00.063Z,3.30
2018-05-24T19:57:27.559Z,2.80
2018-05-24T19:59:55.116Z,3.50
2018-05-24T20:02:22.604Z,3.10
2018-05-24T20:04:50.151Z,3.43
2018-05-24T20:07:19.474Z,3.57
2018-05-24T20:09:47.010Z,3.40
2018-05-24T20:12:14.564Z,3.10
2018-05-24T20:14:42.830Z,3.63
2018-05-24T20:17:10.359Z,3.07
2018-05-24T20:19:38.916Z,3.20
2018-05-24T20:22:07.337Z,3.37
2018-05-24T20:24:35.962Z,3.20
2018-05-24T20:27:03.489Z,3.37
2018-05-24T20:29:31.746Z,2.93
2018-05-24T20:31:59.255Z,3.23
2018-05-24T20:34:26.750Z,3.37
2018-05-24T20:36:54.267Z,3.00
2018-05-24T20:39:21.828Z,3.00
2018-05-24T20:41:49.686Z,3.33
2018-05-24T20:44:17.954Z,3.27
2018-05-24T20:46:46.244Z,3.27
2018-05-24T20:49:14.564Z,3.60
2018-05-24T20:51:42.133Z,2.80
2018-05-24T20:54:10.598Z,2.97
2018-05-24T20:56:38.117Z,3.37
2018-05-24T20:59:06.495Z,3.23
2018-05-24T21:01:34.771Z,3.20
2018-05-24T21:04:03.094Z,3.53
2018-05-24T21:06:30.595Z,3.13
2018-05-24T21:08:58.117Z,3.40
2018-05-24T21:11:25.642Z,3.07
2018-05-24T21:13:53.946Z,3.40
2018-05-24T21:16:21.442Z,3.67
2018-05-24T21:18:48.971Z,3.43
2018-05-24T21:21:16.463Z,3.00
2018-05-24T21:23:44.023Z,3.30
2018-05-24T21:26:12.291Z,3.03
2018-05-24T21:28:39.827Z,3.83
2018-05-24T21:31:07.345Z,3.40
2018-05-24T21:33:35.665Z,3.40
2018-05-24T21:36:03.166Z,3.30
2018-05-24T21:38:30.686Z,3.63
2018-05-24T21:40:58.669Z,3.47
2018-05-24T21:43:26.201Z,3.07
2018-05-24T21:45:53.697Z,3.27
2018-05-24T21:48:22.103Z,3.27
2018-05-24T21:50:50.375Z,3.27
2018-05-24T21:53:17.979Z,3.23
2018-05-24T21:55:45.472Z,3.20
2018-05-24T21:58:12.994Z,3.77
2018-05-24T22:00:46.256Z,3.30
2018-05-24T22:03:13.821Z,3.57
2018-05-24T22:05:42.096Z,3.50
2018-05-24T22:08:09.607Z,3.30
2018-05-24T22:10:37.129Z,3.37
2018-05-24T22:13:05.387Z,3.37
2018-05-24T22:15:33.725Z,3.30
2018-05-24T22:18:01.277Z,3.13
2018-05-24T22:20:28.840Z,3.20
2018-05-24T22:22:56.408Z,3.60
2018-05-24T22:25:23.928Z,3.27
2018-05-24T22:27:52.210Z,3.67
2018-05-24T22:30:19.747Z,3.70
2018-05-24T22:32:48.021Z,3.73
2018-05-24T22:35:15.536Z,3.20
2018-05-24T22:37:43.030Z,3.50
2018-05-24T22:40:10.695Z,3.73
2018-05-24T22:42:38.158Z,3.60
2018-05-24T22:45:05.668Z,3.57
2018-05-24T22:47:33.226Z,3.23
2018-05-24T22:50:00.736Z,3.90
2018-05-24T22:52:28.339Z,3.73
2018-05-24T22:54:56.735Z,3.67
2018-05-24T22:57:24.250Z,3.97
2018-05-24T22:59:51.770Z,3.50
2018-05-24T23:02:19.307Z,3.70
2018-05-24T23:04:46.815Z,3.73
2018-05-24T23:07:14.308Z,3.80
2018-05-24T23:09:42.586Z,3.57
2018-05-24T23:12:10.840Z,3.87
2018-05-24T23:14:38.350Z,4.00
2018-05-24T23:17:05.855Z,3.53
2018-05-24T23:19:33.371Z,3.63
2018-05-24T23:22:00.902Z,3.70
2018-05-24T23:24:29.221Z,3.30
2018-05-24T23:26:56.750Z,4.00
2018-05-24T23:29:25.015Z,3.70
2018-05-24T23:31:53.312Z,4.17
2018-05-24T23:34:20.805Z,3.90
2018-05-24T23:36:48.334Z,3.70
2018-05-24T23:39:15.837Z,3.90
2018-05-24T23:41:43.354Z,3.60
2018-05-24T23:44:11.633Z,4.37
2018-05-24T23:46:39.145Z,3.80
2018-05-24T23:49:06.650Z,3.90
2018-05-24T23:51:35.042Z,4.17
2018-05-24T23:54:02.547Z,3.63
2018-05-24T23:56:30.148Z,4.20
2018-05-24T23:58:58.414Z,4.00
